South Coast: Past 24 Hour Conditions

 

Winterland

01:30 PM NDT 20 September 2014
This table is a summary of hourly weather conditions for the past 24 hours.
Date / Time
(NDT)
Wind(knots) Conditions Visibility(km) Pressure(kPa) Air tempC) Relative humidity(%) Dew pointC)
20 September 2014
13:30 WSW 21 gust 27 Cloudy 15 102.2 15 56 6
12:30 W 19 gust 26 Cloudy 15 102.3 14 56 5
11:30 W 18 gust 25 N/A 15 102.3 13 57 5
10:30 W 16 Cloudy 15 102.4 12 61 5
9:30 W 17 Partly Cloudy 15 102.3 11 59 4
8:30 WNW 16 Mainly Sunny 15 102.3 10 59 2
7:30 WNW 11 Sunny 15 102.3 8 74 4
6:30 WNW 13 Partly Cloudy 15 102.2 9 73 4
5:30 WNW 10 gust 17 Mainly Clear 15 102.1 8 75 4
4:30 WNW 10 Clear 15 102.0 8 73 3
3:30 WNW 15 gust 21 Clear 15 102.0 8 68 2
2:30 WNW 13 gust 21 Clear 15 101.9 7 67 2
1:30 NW 18 Clear 15 101.9 7 61 0
0:30 NW 14 gust 19 Clear 15 101.8 7 58 -1
19 September 2014
23:30 NW 11 Clear 15 101.7 7 58 -1
22:30 NNW 16 Mainly Clear 15 101.6 8 55 0
21:30 NW 14 Clear 15 101.5 8 64 2
20:30 NW 8 Mainly Clear 15 101.3 8 72 3
19:30 NW 7 gust 17 Heavy Rain 8 101.2 8 76 4
18:30 WNW 16 Partly Cloudy 15 101.2 10 60 3
17:30 WNW 14 Mainly Sunny 15 101.1 10 59 3
16:30 WNW 15 gust 22 Mainly Sunny 15 101.1 12 57 4
15:30 WNW 16 gust 22 Partly Cloudy 15 101.0 13 59 5
14:30 W 19 gust 24 Mainly Sunny 15 101.0 13 57 5
13:30 NW 15 gust 25 Mainly Sunny 15 101.0 13 51 3
 
Map of Atlantic - Newfoundland marine weather areas Southwestern Grand Banks - 44138 Banquereau - 44139 Tail of the Bank - 44140 Nickerson Bank - 44251 Northeast Burgeo Bank - 44255 Blanc-Sablon Airport Cap Whittle Chevery Natashquan Airport Heath Point Miscou Island Grand Étang Ingonish Beach North Mountain St.Paul Island J.A. Douglas McCurdy Sydney Airport Charlottetown Airport East Point North Cape Argentia Bonavista Burgeo Cape Race Corner Brook Daniel's Harbour Englee Ferolle Point La Scie Port aux Basques Rocky Harbour Sagona Island St. Anthony Airport St. John's Int'l Airport St. Lawrence Stephenville Airport Twillingate Winterland Wreckhouse Cartwright Airport Mary's Harbour Grates Cove Pool's Island Marticot Island Long Pond Îles de la Madeleine Airport
Legend: buoyBuoy land stationLand Station